KSGF/SGF METAR and TAF weather

Enter ICAO airport designator
Station Type Date Time Source
KSGF METAR 2019/08/23 15:52 UTC NOAA

KSGF 231552Z 00000KT 10SM SCT038 OVC080 24/19 A3006 RMK AO2 SLP165 T02440194 $


Station Type Date Time Source
KSGF Decoded METAR 2019/08/23 15:52 UTC NOAA

Station name not available
Aug 23, 2019 - 11:52 AM EDT / 2019.08.23 1552 UTC
Wind: Calm:0
Visibility: 10 mile(s):0
Sky conditions: overcast
Temperature: 75.9 F (24.4 C)
Dew Point: 66.9 F (19.4 C)
Relative Humidity: 73%
Pressure (altimeter): 30.06 in. Hg (1017 hPa)
ob: KSGF 231552Z 00000KT 10SM SCT038 OVC080 24/19 A3006 RMK AO2 SLP165 T02440194
cycle: 16

Station Type Date Time Source
KSGF TAF 2019/08/23 15:30 UTC NOAA

TAF
AMD KSGF 231528Z 2315/2412 17005KT P6SM BKN040
TEMPO 2315/2318 BKN020
FM240600 10005KT P6SM BKN030 PROB30 2406/2407 4SM -SHRA BR OVC015
FM240800 09005KT P6SM BKN016 PROB30 2408/2412 4SM TSRA BR OVC009CB

Example: see airport list